createdAt,value
2018-05-18T00:02:22.229Z,74.17
2018-05-18T00:04:49.075Z,75.12
2018-05-18T00:07:16.019Z,74.55
2018-05-18T00:09:42.904Z,74.72
2018-05-18T00:12:09.752Z,74.21
2018-05-18T00:14:36.628Z,74.40
2018-05-18T00:17:03.518Z,73.96
2018-05-18T00:19:31.106Z,73.92
2018-05-18T00:21:57.944Z,73.93
2018-05-18T00:24:25.095Z,73.91
2018-05-18T00:26:51.936Z,73.63
2018-05-18T00:29:18.785Z,73.73
2018-05-18T00:31:45.682Z,73.79
2018-05-18T00:34:12.524Z,73.51
2018-05-18T00:36:39.366Z,73.42
2018-05-18T00:39:06.579Z,73.80
2018-05-18T00:41:33.418Z,73.86
2018-05-18T00:44:00.276Z,73.51
2018-05-18T00:46:27.479Z,73.71
2018-05-18T00:48:54.322Z,73.62
2018-05-18T00:51:21.160Z,74.16
2018-05-18T00:53:48.360Z,73.51
2018-05-18T00:56:15.194Z,73.51
2018-05-18T00:58:42.032Z,73.51
2018-05-18T01:01:09.820Z,74.08
2018-05-18T01:03:36.659Z,73.61
2018-05-18T01:06:03.532Z,73.81
2018-05-18T01:08:30.861Z,73.39
2018-05-18T01:10:57.732Z,73.63
2018-05-18T01:13:24.575Z,73.23
2018-05-18T01:15:51.571Z,73.95
2018-05-18T01:18:18.364Z,73.73
2018-05-18T01:20:45.255Z,73.62
2018-05-18T01:23:13.260Z,73.73
2018-05-18T01:25:40.103Z,73.39
2018-05-18T01:28:06.937Z,73.59
2018-05-18T01:30:34.094Z,73.90
2018-05-18T01:33:00.988Z,74.60
2018-05-18T01:35:27.836Z,74.07
2018-05-18T01:37:55.032Z,74.10
2018-05-18T01:40:21.868Z,74.56
2018-05-18T01:42:48.721Z,73.99
2018-05-18T01:45:15.872Z,73.94
2018-05-18T01:47:42.735Z,74.39
2018-05-18T01:50:09.575Z,74.34
2018-05-18T01:52:36.724Z,74.16
2018-05-18T01:55:03.626Z,74.58
2018-05-18T01:57:31.214Z,74.62
2018-05-18T01:59:58.111Z,74.53
2018-05-18T02:02:24.980Z,74.61
2018-05-18T02:04:52.647Z,74.31
2018-05-18T02:07:20.284Z,74.44
2018-05-18T02:09:47.172Z,74.77
2018-05-18T02:12:14.748Z,74.44
2018-05-18T02:14:41.796Z,74.00
2018-05-18T02:17:08.635Z,73.86
2018-05-18T02:19:35.474Z,73.95
2018-05-18T02:22:02.741Z,73.67
2018-05-18T02:24:29.600Z,74.34
2018-05-18T02:26:56.464Z,74.36
2018-05-18T02:29:23.616Z,73.98
2018-05-18T02:31:50.474Z,74.24
2018-05-18T02:34:17.405Z,73.87
2018-05-18T02:36:44.720Z,74.04
2018-05-18T02:39:11.603Z,73.74
2018-05-18T02:41:38.467Z,73.82
2018-05-18T02:44:05.767Z,74.14
2018-05-18T02:46:32.619Z,74.23
2018-05-18T02:48:59.464Z,73.96
2018-05-18T02:51:26.599Z,74.02
2018-05-18T02:53:53.444Z,74.03
2018-05-18T02:56:20.284Z,73.67
2018-05-18T02:58:47.905Z,74.10
2018-05-18T03:01:14.752Z,73.89
2018-05-18T03:03:41.619Z,74.12
2018-05-18T03:06:09.244Z,74.23
2018-05-18T03:08:36.091Z,74.39
2018-05-18T03:11:02.945Z,74.11
2018-05-18T03:13:30.049Z,74.10
2018-05-18T03:15:56.891Z,74.03
2018-05-18T03:18:23.727Z,74.70
2018-05-18T03:20:50.992Z,74.06
2018-05-18T03:23:17.839Z,74.49
2018-05-18T03:25:44.681Z,73.90
2018-05-18T03:28:11.580Z,74.43
2018-05-18T03:30:38.416Z,74.29
2018-05-18T03:33:05.292Z,73.93
2018-05-18T03:35:33.282Z,73.79
2018-05-18T03:38:01.003Z,73.66
2018-05-18T03:40:27.844Z,74.26
2018-05-18T03:42:55.021Z,73.68
2018-05-18T03:45:22.596Z,73.84
2018-05-18T03:47:49.450Z,73.86
2018-05-18T03:50:16.365Z,74.00
2018-05-18T03:52:43.991Z,73.46
2018-05-18T03:55:10.841Z,73.33
2018-05-18T03:57:37.738Z,73.55
2018-05-18T04:00:04.636Z,74.34
2018-05-18T04:02:50.182Z,73.97
2018-05-18T04:05:35.637Z,73.88
2018-05-18T04:08:21.676Z,73.72
2018-05-18T04:10:48.536Z,74.05
2018-05-18T04:13:15.372Z,73.48
2018-05-18T04:15:42.513Z,73.54
2018-05-18T04:18:09.477Z,73.98
2018-05-18T04:20:36.362Z,73.38
2018-05-18T04:23:04.007Z,73.50
2018-05-18T04:25:30.849Z,73.70
2018-05-18T04:27:57.694Z,73.64
2018-05-18T04:30:24.660Z,73.15
2018-05-18T04:32:51.473Z,73.16
2018-05-18T04:35:18.330Z,73.39
2018-05-18T04:37:46.128Z,73.39
2018-05-18T04:40:13.015Z,73.33
2018-05-18T04:42:40.820Z,73.06
2018-05-18T04:45:09.029Z,73.14
2018-05-18T04:47:36.566Z,72.76
2018-05-18T04:50:03.436Z,73.30
2018-05-18T04:52:30.616Z,72.82
2018-05-18T04:54:57.469Z,72.66
2018-05-18T04:57:24.321Z,73.08
2018-05-18T04:59:51.224Z,72.94
2018-05-18T05:02:18.811Z,72.84
2018-05-18T05:04:45.668Z,73.83
2018-05-18T05:07:12.873Z,72.84
2018-05-18T05:09:39.721Z,73.30
2018-05-18T05:12:06.540Z,72.85
2018-05-18T05:14:34.531Z,72.61
2018-05-18T05:17:01.372Z,72.54
2018-05-18T05:19:28.476Z,72.23
2018-05-18T05:21:55.680Z,72.32
2018-05-18T05:24:22.525Z,72.66
2018-05-18T05:26:49.364Z,72.64
2018-05-18T05:29:16.519Z,72.77
2018-05-18T05:31:43.356Z,73.30
2018-05-18T05:34:10.253Z,72.72
2018-05-18T05:36:37.212Z,72.37
2018-05-18T05:39:04.107Z,72.32
2018-05-18T05:41:30.953Z,72.42
2018-05-18T05:43:59.167Z,72.21
2018-05-18T05:46:26.004Z,72.00
2018-05-18T05:48:52.875Z,72.10
2018-05-18T05:51:20.579Z,72.40
2018-05-18T05:53:47.426Z,72.46
2018-05-18T05:56:14.288Z,72.02
2018-05-18T05:58:41.521Z,72.26
2018-05-18T06:01:08.359Z,71.76
2018-05-18T06:03:35.219Z,71.62
2018-05-18T06:06:02.144Z,71.79
2018-05-18T06:08:29.004Z,72.20
2018-05-18T06:10:55.859Z,73.42
2018-05-18T06:13:23.094Z,72.61
2018-05-18T06:15:49.972Z,72.62
2018-05-18T06:18:16.802Z,72.01
2018-05-18T06:20:44.140Z,71.63
2018-05-18T06:23:10.989Z,71.14
2018-05-18T06:25:37.852Z,70.56
2018-05-18T06:28:04.763Z,70.47
2018-05-18T06:30:32.348Z,70.90
2018-05-18T06:32:59.210Z,71.21
2018-05-18T06:35:26.432Z,70.66
2018-05-18T06:37:53.260Z,70.83
2018-05-18T06:40:20.831Z,71.43
2018-05-18T06:42:48.091Z,70.53
2018-05-18T06:45:15.659Z,71.00
2018-05-18T06:47:42.484Z,69.82
2018-05-18T06:50:10.144Z,70.63
2018-05-18T06:52:37.827Z,71.56
2018-05-18T06:55:04.640Z,71.04
2018-05-18T06:57:31.818Z,71.10
2018-05-18T06:59:58.652Z,71.73
2018-05-18T07:02:25.481Z,70.89
2018-05-18T07:04:53.135Z,70.50
2018-05-18T07:07:20.719Z,69.47
2018-05-18T07:09:47.559Z,69.99
2018-05-18T07:12:15.331Z,69.14
2018-05-18T07:14:55.047Z,69.68
2018-05-18T07:17:22.239Z,68.72
2018-05-18T07:19:49.241Z,69.21
2018-05-18T07:22:16.241Z,69.39
2018-05-18T07:24:43.389Z,70.49
2018-05-18T07:27:10.388Z,69.96
2018-05-18T07:29:37.234Z,68.58
2018-05-18T07:32:04.643Z,69.12
2018-05-18T07:34:31.628Z,68.44
2018-05-18T07:36:58.484Z,67.97
2018-05-18T07:39:25.385Z,67.56
2018-05-18T07:41:52.236Z,69.43
2018-05-18T07:44:19.246Z,68.16
2018-05-18T07:46:46.152Z,67.79
2018-05-18T07:49:12.987Z,67.98
2018-05-18T07:51:39.830Z,67.50
2018-05-18T07:54:07.050Z,67.20
2018-05-18T07:56:33.908Z,66.92
2018-05-18T07:59:00.751Z,68.53
2018-05-18T08:01:27.657Z,67.34
2018-05-18T08:03:55.315Z,66.64
2018-05-18T08:06:22.177Z,68.08
2018-05-18T08:08:50.184Z,67.50
2018-05-18T08:11:17.051Z,68.37
2018-05-18T08:13:45.361Z,67.52
2018-05-18T08:16:12.642Z,66.46
2018-05-18T08:18:39.499Z,65.41
2018-05-18T08:21:06.364Z,65.40
2018-05-18T08:23:39.436Z,66.04
2018-05-18T08:26:06.341Z,65.05
2018-05-18T08:28:51.958Z,65.00
2018-05-18T08:31:18.827Z,65.73
2018-05-18T08:33:45.678Z,65.97
2018-05-18T08:36:12.844Z,64.77
2018-05-18T08:38:39.688Z,63.99
2018-05-18T08:41:06.537Z,63.45
2018-05-18T08:43:34.343Z,64.50
2018-05-18T08:46:01.207Z,64.07
2018-05-18T08:48:28.050Z,63.72
2018-05-18T08:50:54.936Z,64.04
2018-05-18T08:53:21.768Z,65.70
2018-05-18T08:55:48.612Z,66.33
2018-05-18T08:58:15.519Z,64.71
2018-05-18T09:00:42.528Z,63.95
2018-05-18T09:03:09.465Z,63.80
2018-05-18T09:05:36.389Z,64.63
2018-05-18T09:08:03.303Z,65.30
2018-05-18T09:10:30.157Z,64.69
2018-05-18T09:12:57.812Z,64.30
2018-05-18T09:15:24.661Z,62.89
2018-05-18T09:17:51.794Z,62.16
2018-05-18T09:20:19.784Z,62.78
2018-05-18T09:22:46.612Z,62.77
2018-05-18T09:25:13.444Z,62.05
2018-05-18T09:27:41.340Z,62.56
2018-05-18T09:30:08.307Z,62.53
2018-05-18T09:32:35.136Z,62.00
2018-05-18T09:35:02.381Z,61.04
2018-05-18T09:37:29.220Z,61.11
2018-05-18T09:39:56.161Z,60.82
2018-05-18T09:42:22.976Z,61.54
2018-05-18T09:44:49.880Z,60.32
2018-05-18T09:47:17.411Z,60.97
2018-05-18T09:49:45.392Z,60.39
2018-05-18T09:52:12.220Z,59.75
2018-05-18T09:54:39.935Z,61.46
2018-05-18T09:57:06.697Z,60.76
2018-05-18T09:59:33.531Z,60.95
2018-05-18T10:02:00.386Z,59.83
2018-05-18T10:04:27.281Z,58.82
2018-05-18T10:06:54.131Z,59.43
2018-05-18T10:09:20.973Z,57.66
2018-05-18T10:11:47.855Z,57.32
2018-05-18T10:14:14.679Z,56.24
2018-05-18T10:16:42.261Z,57.66
2018-05-18T10:19:09.883Z,57.11
2018-05-18T10:21:36.716Z,57.17
2018-05-18T10:24:03.593Z,57.46
2018-05-18T10:26:30.521Z,58.19
2018-05-18T10:28:57.338Z,57.17
2018-05-18T10:31:25.043Z,56.25
2018-05-18T10:33:52.926Z,57.03
2018-05-18T10:36:19.797Z,56.80
2018-05-18T10:38:47.378Z,55.66
2018-05-18T10:41:15.016Z,56.55
2018-05-18T10:43:41.864Z,55.80
2018-05-18T10:46:09.507Z,55.77
2018-05-18T10:48:36.779Z,56.12
2018-05-18T10:51:03.616Z,55.54
2018-05-18T10:53:30.458Z,55.49
2018-05-18T10:55:57.623Z,56.57
2018-05-18T10:58:24.453Z,56.15
2018-05-18T11:00:51.357Z,55.58
2018-05-18T11:03:18.400Z,55.95
2018-05-18T11:05:45.243Z,55.42
2018-05-18T11:08:12.102Z,54.97
2018-05-18T11:10:38.991Z,54.82
2018-05-18T11:13:06.580Z,55.09
2018-05-18T11:15:34.179Z,54.51
2018-05-18T11:18:01.405Z,53.80
2018-05-18T11:20:28.236Z,52.99
2018-05-18T11:22:55.144Z,52.19
2018-05-18T11:25:22.036Z,51.11
2018-05-18T11:27:48.875Z,50.46
2018-05-18T11:30:15.946Z,53.90
2018-05-18T11:32:43.024Z,53.38
2018-05-18T11:35:09.881Z,53.29
2018-05-18T11:37:36.919Z,54.72
2018-05-18T11:40:03.859Z,54.90
2018-05-18T11:42:30.686Z,54.75
2018-05-18T11:44:57.520Z,55.87
2018-05-18T11:47:24.532Z,55.38
2018-05-18T11:49:52.112Z,55.27
2018-05-18T11:52:18.965Z,54.58
2018-05-18T11:54:46.905Z,54.58
2018-05-18T11:57:13.705Z,53.17
2018-05-18T11:59:41.012Z,53.66
2018-05-18T12:02:09.067Z,53.61
2018-05-18T12:04:36.655Z,53.37
2018-05-18T12:07:04.861Z,54.86
2018-05-18T12:09:31.740Z,54.90
2018-05-18T12:11:58.572Z,55.13
2018-05-18T12:14:25.424Z,53.68
2018-05-18T12:16:52.315Z,54.68
2018-05-18T12:19:19.163Z,53.17
2018-05-18T12:21:46.349Z,52.17
2018-05-18T12:24:14.447Z,52.45
2018-05-18T12:26:41.302Z,51.99
2018-05-18T12:29:08.208Z,50.57
2018-05-18T12:31:35.117Z,50.31
2018-05-18T12:34:02.135Z,47.68
2018-05-18T12:36:30.109Z,48.62
2018-05-18T12:38:56.996Z,49.87
2018-05-18T12:41:23.835Z,50.98
2018-05-18T12:43:50.684Z,50.44
2018-05-18T12:46:17.596Z,49.94
2018-05-18T12:48:44.668Z,49.73
2018-05-18T12:51:11.546Z,49.70
2018-05-18T12:53:38.431Z,49.22
2018-05-18T12:56:05.307Z,50.79
2018-05-18T12:58:32.178Z,49.45
2018-05-18T13:00:59.109Z,49.57
2018-05-18T13:03:25.984Z,48.73
2018-05-18T13:05:52.860Z,49.77
2018-05-18T13:08:20.484Z,49.29
2018-05-18T13:10:47.351Z,49.33
2018-05-18T13:13:14.188Z,49.30
2018-05-18T13:15:41.216Z,49.83
2018-05-18T13:18:08.060Z,51.24
2018-05-18T13:20:34.887Z,51.71
2018-05-18T13:23:02.035Z,51.54
2018-05-18T13:25:28.869Z,50.74
2018-05-18T13:27:56.465Z,50.11
2018-05-18T13:30:23.444Z,48.94
2018-05-18T13:32:50.300Z,46.99
2018-05-18T13:35:17.321Z,47.12
2018-05-18T13:37:44.254Z,46.52
2018-05-18T13:40:11.101Z,47.33
2018-05-18T13:42:37.928Z,46.41
2018-05-18T13:45:05.233Z,45.47
2018-05-18T13:47:32.049Z,47.11
2018-05-18T13:49:58.889Z,47.79
2018-05-18T13:52:26.108Z,48.39
2018-05-18T13:54:52.999Z,47.33
2018-05-18T13:57:19.855Z,46.74
2018-05-18T13:59:46.746Z,46.29
2018-05-18T14:02:13.588Z,47.11
2018-05-18T14:04:40.432Z,46.51
2018-05-18T14:07:07.328Z,47.02
2018-05-18T14:09:34.151Z,46.38
2018-05-18T14:12:00.985Z,46.48
2018-05-18T14:14:27.877Z,46.35
2018-05-18T14:16:54.731Z,47.27
2018-05-18T14:19:22.300Z,47.52
2018-05-18T14:21:49.924Z,48.23
2018-05-18T14:24:16.769Z,48.73
2018-05-18T14:26:43.612Z,48.75
2018-05-18T14:29:10.530Z,48.39
2018-05-18T14:31:37.363Z,47.62
2018-05-18T14:34:05.017Z,44.99
2018-05-18T14:36:32.105Z,44.87
2018-05-18T14:38:58.952Z,45.86
2018-05-18T14:41:25.793Z,46.04
2018-05-18T14:43:52.985Z,45.21
2018-05-18T14:46:19.813Z,45.03
2018-05-18T14:48:46.652Z,45.28
2018-05-18T14:51:13.945Z,43.16
2018-05-18T14:53:40.731Z,42.82
2018-05-18T14:56:07.572Z,41.60
2018-05-18T14:58:34.898Z,41.92
2018-05-18T15:01:01.696Z,42.78
2018-05-18T15:03:28.524Z,42.90
2018-05-18T15:05:55.433Z,44.08
2018-05-18T15:08:22.271Z,43.72
2018-05-18T15:10:49.111Z,45.44
2018-05-18T15:13:16.006Z,43.58
2018-05-18T15:15:42.836Z,41.76
2018-05-18T15:18:09.677Z,43.38
2018-05-18T15:20:36.686Z,41.34
2018-05-18T15:23:03.540Z,41.63
2018-05-18T15:25:30.387Z,42.02
2018-05-18T15:27:57.272Z,42.15
2018-05-18T15:30:24.108Z,41.06
2018-05-18T15:32:50.953Z,42.24
2018-05-18T15:35:18.107Z,42.46
2018-05-18T15:37:45.392Z,42.08
2018-05-18T15:40:12.228Z,42.53
2018-05-18T15:42:39.190Z,42.08
2018-05-18T15:45:05.999Z,42.96
2018-05-18T15:47:32.866Z,43.21
2018-05-18T15:49:59.751Z,43.07
2018-05-18T15:52:26.589Z,41.58
2018-05-18T15:54:53.444Z,41.99
2018-05-18T15:57:20.656Z,42.90
2018-05-18T15:59:47.443Z,44.18
2018-05-18T16:02:14.283Z,41.83
2018-05-18T16:04:41.437Z,42.21
2018-05-18T16:07:08.284Z,42.33
2018-05-18T16:09:35.121Z,42.90
2018-05-18T16:12:02.154Z,42.08
2018-05-18T16:14:29.728Z,42.66
2018-05-18T16:16:56.559Z,41.28
2018-05-18T16:19:24.190Z,42.94
2018-05-18T16:21:51.032Z,42.36
2018-05-18T16:24:17.875Z,43.32
2018-05-18T16:26:44.757Z,42.72
2018-05-18T16:29:11.643Z,43.72
2018-05-18T16:31:38.484Z,44.13
2018-05-18T16:34:05.657Z,43.77
2018-05-18T16:36:32.511Z,42.49
2018-05-18T16:38:59.533Z,44.15
2018-05-18T16:41:26.758Z,43.33
2018-05-18T16:43:53.603Z,44.42
2018-05-18T16:46:20.452Z,43.42
2018-05-18T16:48:47.348Z,43.74
2018-05-18T16:51:14.179Z,45.11
2018-05-18T16:53:41.016Z,44.71
2018-05-18T16:56:07.908Z,45.60
2018-05-18T16:58:35.636Z,46.77
2018-05-18T17:01:02.573Z,46.32
2018-05-18T17:03:29.703Z,46.20
2018-05-18T17:05:57.343Z,47.18
2018-05-18T17:08:24.456Z,46.71
2018-05-18T17:10:51.823Z,47.17
2018-05-18T17:13:18.712Z,46.55
2018-05-18T17:15:45.553Z,46.72
2018-05-18T17:18:12.576Z,46.88
2018-05-18T17:20:40.555Z,47.74
2018-05-18T17:23:07.414Z,47.83
2018-05-18T17:25:34.308Z,48.73
2018-05-18T17:28:01.131Z,49.41
2018-05-18T17:30:28.103Z,49.67
2018-05-18T17:32:55.467Z,49.74
2018-05-18T17:35:22.438Z,51.90
2018-05-18T17:37:49.365Z,51.72
2018-05-18T17:40:17.210Z,51.86
2018-05-18T17:42:44.095Z,51.98
2018-05-18T17:45:10.984Z,51.79
2018-05-18T17:47:38.420Z,51.79
2018-05-18T17:50:05.289Z,51.94
2018-05-18T17:52:33.217Z,51.98
2018-05-18T17:55:01.567Z,51.86
2018-05-18T17:57:29.308Z,51.98
2018-05-18T17:59:56.148Z,52.86
2018-05-18T18:02:23.323Z,53.32
2018-05-18T18:04:50.406Z,55.08
2018-05-18T18:07:17.251Z,54.36
2018-05-18T18:09:45.340Z,54.74
2018-05-18T18:12:12.171Z,56.11
2018-05-18T18:14:39.022Z,55.49
2018-05-18T18:17:06.683Z,55.45
2018-05-18T18:19:34.443Z,55.31
2018-05-18T18:22:01.288Z,55.88
2018-05-18T18:24:28.652Z,55.83
2018-05-18T18:26:55.488Z,55.96
2018-05-18T18:29:22.699Z,55.53
2018-05-18T18:31:49.876Z,56.50
2018-05-18T18:34:18.439Z,56.55
2018-05-18T18:36:45.268Z,56.27
2018-05-18T18:39:12.420Z,56.65
2018-05-18T18:41:39.263Z,56.46
2018-05-18T18:44:06.109Z,56.91
2018-05-18T18:46:33.737Z,56.96
2018-05-18T18:49:00.582Z,57.34
2018-05-18T18:51:27.430Z,57.79
2018-05-18T18:53:54.322Z,58.34
2018-05-18T18:56:21.928Z,58.07
2018-05-18T18:58:48.900Z,58.88
2018-05-18T19:01:15.704Z,58.73
2018-05-18T19:03:42.588Z,59.73
2018-05-18T19:06:09.427Z,59.63
2018-05-18T19:08:37.056Z,59.26
2018-05-18T19:11:04.641Z,59.63
2018-05-18T19:13:31.492Z,59.95
2018-05-18T19:15:58.403Z,59.98
2018-05-18T19:18:25.987Z,60.57
2018-05-18T19:20:53.031Z,60.47
2018-05-18T19:23:21.051Z,60.58
2018-05-18T19:25:47.890Z,61.92
2018-05-18T19:28:14.769Z,61.41
2018-05-18T19:30:42.420Z,61.49
2018-05-18T19:33:10.016Z,62.25
2018-05-18T19:35:37.135Z,61.93
2018-05-18T19:38:04.267Z,61.97
2018-05-18T19:40:31.096Z,62.29
2018-05-18T19:42:58.198Z,63.16
2018-05-18T19:45:25.836Z,62.83
2018-05-18T19:47:52.693Z,62.43
2018-05-18T19:50:20.295Z,63.34
2018-05-18T19:52:47.185Z,63.23
2018-05-18T19:55:14.031Z,63.55
2018-05-18T19:57:41.905Z,63.99
2018-05-18T20:00:08.797Z,64.46
2018-05-18T20:02:35.628Z,65.30
2018-05-18T20:05:02.529Z,65.37
2018-05-18T20:07:29.688Z,64.96
2018-05-18T20:09:56.531Z,66.82
2018-05-18T20:12:23.414Z,65.19
2018-05-18T20:14:50.579Z,64.80
2018-05-18T20:17:17.433Z,64.80
2018-05-18T20:19:44.317Z,64.55
2018-05-18T20:22:11.165Z,64.77
2018-05-18T20:24:38.004Z,64.83
2018-05-18T20:27:04.887Z,64.82
2018-05-18T20:29:32.041Z,67.04
2018-05-18T20:31:58.878Z,66.93
2018-05-18T20:34:25.743Z,67.10
2018-05-18T20:36:52.984Z,67.53
2018-05-18T20:39:19.824Z,67.97
2018-05-18T20:41:46.661Z,68.35
2018-05-18T20:44:13.688Z,68.97
2018-05-18T20:46:40.528Z,68.56
2018-05-18T20:49:07.371Z,68.92
2018-05-18T20:51:34.500Z,68.83
2018-05-18T20:54:01.337Z,69.14
2018-05-18T20:56:28.207Z,69.86
2018-05-18T20:58:55.401Z,69.99
2018-05-18T21:01:22.252Z,69.14
2018-05-18T21:03:49.180Z,69.80
2018-05-18T21:06:16.834Z,69.27
2018-05-18T21:08:44.452Z,68.97
2018-05-18T21:11:11.296Z,70.30
2018-05-18T21:13:38.191Z,70.65
2018-05-18T21:16:05.059Z,71.17
2018-05-18T21:18:32.007Z,71.08
2018-05-18T21:20:59.148Z,71.52
2018-05-18T21:23:25.974Z,70.96
2018-05-18T21:25:53.557Z,71.30
2018-05-18T21:28:20.805Z,71.37
2018-05-18T21:30:48.632Z,71.29
2018-05-18T21:33:15.458Z,70.90
2018-05-18T21:35:42.617Z,71.49
2018-05-18T21:38:09.471Z,72.79
2018-05-18T21:40:36.309Z,72.71
2018-05-18T21:43:03.512Z,72.22
2018-05-18T21:45:30.343Z,72.36
2018-05-18T21:47:57.195Z,72.57
2018-05-18T21:50:24.204Z,72.93
2018-05-18T21:52:51.041Z,73.55
2018-05-18T21:55:17.880Z,74.98
2018-05-18T21:57:44.772Z,72.94
2018-05-18T22:00:11.636Z,73.13
2018-05-18T22:02:38.487Z,74.12
2018-05-18T22:05:05.644Z,75.12
2018-05-18T22:07:32.521Z,74.21
2018-05-18T22:09:59.353Z,74.19
2018-05-18T22:12:26.251Z,73.86
2018-05-18T22:14:53.834Z,73.21
2018-05-18T22:17:20.669Z,73.85
2018-05-18T22:19:47.536Z,72.95
2018-05-18T22:22:14.400Z,73.03
2018-05-18T22:24:41.216Z,73.29
2018-05-18T22:27:08.087Z,73.22
2018-05-18T22:29:34.905Z,72.84
2018-05-18T22:32:01.779Z,73.25
2018-05-18T22:34:28.885Z,73.81
2018-05-18T22:36:55.771Z,73.08
2018-05-18T22:39:22.603Z,74.03
2018-05-18T22:41:49.477Z,74.03
2018-05-18T22:44:16.303Z,75.13
2018-05-18T22:46:43.157Z,73.72
2018-05-18T22:49:10.041Z,73.22
2018-05-18T22:51:37.619Z,74.11
2018-05-18T22:54:04.436Z,74.72
2018-05-18T22:56:32.050Z,73.96
2018-05-18T22:59:02.552Z,74.29
2018-05-18T23:01:31.184Z,74.48
2018-05-18T23:03:58.083Z,75.71
2018-05-18T23:06:24.911Z,75.71
2018-05-18T23:08:52.490Z,75.39
2018-05-18T23:11:19.451Z,73.95
2018-05-18T23:13:46.276Z,73.84
2018-05-18T23:16:13.104Z,73.35
2018-05-18T23:18:40.713Z,73.24
2018-05-18T23:21:07.533Z,73.26
2018-05-18T23:23:34.380Z,72.79
2018-05-18T23:26:01.261Z,73.02
2018-05-18T23:28:28.185Z,72.84
2018-05-18T23:30:55.022Z,73.87
2018-05-18T23:33:22.033Z,73.38
2018-05-18T23:35:49.607Z,72.32
2018-05-18T23:38:17.214Z,72.90
2018-05-18T23:40:44.094Z,74.59
2018-05-18T23:43:11.674Z,74.06
2018-05-18T23:45:39.229Z,72.82
2018-05-18T23:48:06.980Z,72.77
2018-05-18T23:50:33.803Z,72.94
2018-05-18T23:53:00.639Z,72.49
2018-05-18T23:55:27.601Z,72.66
2018-05-18T23:57:54.592Z,72.32
